createdAt,value
2017-06-22T00:00:44.702Z,0
2017-06-22T00:01:44.701Z,0
2017-06-22T00:02:44.399Z,0
2017-06-22T00:03:44.694Z,0
2017-06-22T00:04:44.690Z,0
2017-06-22T00:05:44.687Z,0
2017-06-22T00:06:44.685Z,0
2017-06-22T00:07:44.708Z,0
2017-06-22T00:08:44.676Z,0
2017-06-22T00:09:44.677Z,0
2017-06-22T00:10:44.673Z,0
2017-06-22T00:11:44.668Z,0
2017-06-22T00:12:44.664Z,0
2017-06-22T00:13:44.663Z,0
2017-06-22T00:14:44.658Z,0
2017-06-22T00:15:44.656Z,0
2017-06-22T00:16:44.655Z,0
2017-06-22T00:17:44.649Z,0
2017-06-22T00:18:44.343Z,0
2017-06-22T00:19:44.640Z,0
2017-06-22T00:20:44.638Z,0
2017-06-22T00:21:44.636Z,0
2017-06-22T00:22:44.632Z,0
2017-06-22T00:23:44.628Z,0
2017-06-22T00:24:44.321Z,0
2017-06-22T00:25:44.018Z,0
2017-06-22T00:26:44.616Z,0
2017-06-22T00:27:44.321Z,0
2017-06-22T00:28:44.306Z,0
2017-06-22T00:29:44.607Z,0
2017-06-22T00:30:44.604Z,0
2017-06-22T00:31:44.603Z,0
2017-06-22T00:32:44.600Z,0
2017-06-22T00:33:44.593Z,0
2017-06-22T00:34:44.589Z,0
2017-06-22T00:35:44.588Z,0
2017-06-22T00:36:44.581Z,0
2017-06-22T00:37:44.580Z,0
2017-06-22T00:38:44.580Z,0
2017-06-22T00:39:44.574Z,0
2017-06-22T00:40:44.570Z,0
2017-06-22T00:41:44.264Z,0
2017-06-22T00:42:44.257Z,0
2017-06-22T00:43:44.256Z,0
2017-06-22T00:44:44.554Z,0
2017-06-22T00:45:44.249Z,0
2017-06-22T00:46:44.551Z,0
2017-06-22T00:47:44.542Z,0
2017-06-22T00:48:44.538Z,0
2017-06-22T00:49:44.535Z,0
2017-06-22T00:50:44.533Z,0
2017-06-22T00:51:44.526Z,0
2017-06-22T00:52:44.523Z,0
2017-06-22T00:53:44.524Z,0
2017-06-22T00:54:44.217Z,0
2017-06-22T00:55:44.511Z,0
2017-06-22T00:56:44.510Z,0
2017-06-22T00:57:44.507Z,0
2017-06-22T00:58:44.502Z,0
2017-06-22T00:59:44.500Z,0
2017-06-22T01:00:44.496Z,0
2017-06-22T01:01:44.490Z,0
2017-06-22T01:02:44.485Z,0
2017-06-22T01:03:44.484Z,0
2017-06-22T01:04:44.482Z,0
2017-06-22T01:05:44.476Z,0
2017-06-22T01:06:44.475Z,0
2017-06-22T01:07:44.476Z,0
2017-06-22T01:08:44.464Z,0
2017-06-22T01:09:44.464Z,0
2017-06-22T01:10:44.454Z,0
2017-06-22T01:11:44.755Z,0
2017-06-22T01:12:44.448Z,0
2017-06-22T01:13:44.443Z,0
2017-06-22T01:14:44.442Z,0
2017-06-22T01:15:43.833Z,0
2017-06-22T01:16:44.433Z,0
2017-06-22T01:17:44.429Z,0
2017-06-22T01:18:44.423Z,0
2017-06-22T01:19:44.422Z,0
2017-06-22T01:20:44.416Z,0
2017-06-22T01:21:44.422Z,0
2017-06-22T01:22:44.109Z,0
2017-06-22T01:23:44.404Z,0
2017-06-22T01:24:43.795Z,0
2017-06-22T01:25:44.396Z,0
2017-06-22T01:26:43.788Z,0
2017-06-22T01:27:43.785Z,0
2017-06-22T01:28:44.383Z,0
2017-06-22T01:29:44.078Z,0
2017-06-22T01:30:44.378Z,0
2017-06-22T01:31:44.372Z,0
2017-06-22T01:32:44.371Z,0
2017-06-22T01:33:44.364Z,0
2017-06-22T01:34:44.060Z,0
2017-06-22T01:35:44.357Z,0
2017-06-22T01:36:44.352Z,0
2017-06-22T01:37:44.045Z,0
2017-06-22T01:38:44.345Z,0
2017-06-22T01:39:44.342Z,0
2017-06-22T01:40:44.345Z,0
2017-06-22T01:41:44.334Z,0
2017-06-22T01:42:44.325Z,0
2017-06-22T01:43:43.717Z,0
2017-06-22T01:44:44.318Z,0
2017-06-22T01:45:44.314Z,0
2017-06-22T01:46:44.315Z,0
2017-06-22T01:47:44.307Z,0
2017-06-22T01:48:44.301Z,0
2017-06-22T01:49:44.300Z,0
2017-06-22T01:50:43.988Z,0
2017-06-22T01:51:44.288Z,0
2017-06-22T01:52:43.984Z,0
2017-06-22T01:53:44.279Z,4
2017-06-22T01:54:43.975Z,4
2017-06-22T01:55:43.970Z,4
2017-06-22T01:56:44.269Z,4
2017-06-22T01:57:44.262Z,0
2017-06-22T01:58:44.259Z,4
2017-06-22T01:59:44.254Z,4
2017-06-22T02:00:44.253Z,4
2017-06-22T02:01:44.246Z,8
2017-06-22T02:02:44.241Z,4
2017-06-22T02:03:44.238Z,4
2017-06-22T02:04:44.234Z,8
2017-06-22T02:05:44.227Z,8
2017-06-22T02:06:44.223Z,8
2017-06-22T02:07:43.920Z,8
2017-06-22T02:08:44.219Z,12
2017-06-22T02:09:44.209Z,12
2017-06-22T02:10:44.209Z,12
2017-06-22T02:11:43.900Z,16
2017-06-22T02:12:43.896Z,20
2017-06-22T02:13:44.195Z,16
2017-06-22T02:14:43.886Z,20
2017-06-22T02:15:43.882Z,24
2017-06-22T02:16:43.876Z,28
2017-06-22T02:17:44.179Z,28
2017-06-22T02:18:43.869Z,32
2017-06-22T02:19:43.867Z,36
2017-06-22T02:20:44.164Z,40
2017-06-22T02:21:44.160Z,44
2017-06-22T02:22:44.154Z,48
2017-06-22T02:23:44.148Z,56
2017-06-22T02:24:43.839Z,60
2017-06-22T02:25:44.143Z,64
2017-06-22T02:26:43.833Z,72
2017-06-22T02:27:43.824Z,80
2017-06-22T02:28:43.518Z,88
2017-06-22T02:29:43.819Z,96
2017-06-22T02:30:43.814Z,100
2017-06-22T02:31:43.202Z,112
2017-06-22T02:32:43.812Z,120
2017-06-22T02:33:43.799Z,128
2017-06-22T02:34:43.793Z,144
2017-06-22T02:35:43.486Z,156
2017-06-22T02:36:43.482Z,168
2017-06-22T02:37:43.791Z,184
2017-06-22T02:38:43.783Z,200
2017-06-22T02:39:43.770Z,216
2017-06-22T02:40:43.771Z,236
2017-06-22T02:41:43.763Z,256
2017-06-22T02:42:44.059Z,276
2017-06-22T02:43:44.059Z,292
2017-06-22T02:44:43.748Z,304
2017-06-22T02:45:43.743Z,324
2017-06-22T02:46:43.437Z,340
2017-06-22T02:47:43.735Z,356
2017-06-22T02:48:43.730Z,372
2017-06-22T02:49:44.029Z,392
2017-06-22T02:50:44.025Z,412
2017-06-22T02:51:43.718Z,428
2017-06-22T02:52:43.709Z,444
2017-06-22T02:53:44.008Z,472
2017-06-22T02:54:44.004Z,492
2017-06-22T02:55:43.998Z,524
2017-06-22T02:56:43.995Z,552
2017-06-22T02:57:43.994Z,580
2017-06-22T02:58:43.986Z,612
2017-06-22T02:59:43.981Z,648
2017-06-22T03:00:43.682Z,684
2017-06-22T03:01:43.669Z,720
2017-06-22T03:02:43.664Z,760
2017-06-22T03:03:43.663Z,796
2017-06-22T03:04:43.654Z,832
2017-06-22T03:05:43.956Z,868
2017-06-22T03:06:43.646Z,900
2017-06-22T03:07:43.640Z,932
2017-06-22T03:08:43.636Z,968
2017-06-22T03:09:43.933Z,1000
2017-06-22T03:10:43.928Z,1044
2017-06-22T03:11:43.623Z,1076
2017-06-22T03:12:43.921Z,1112
2017-06-22T03:13:43.916Z,1144
2017-06-22T03:14:43.606Z,1176
2017-06-22T03:15:43.603Z,1216
2017-06-22T03:16:43.900Z,1264
2017-06-22T03:17:43.592Z,1324
2017-06-22T03:18:43.892Z,1384
2017-06-22T03:19:43.585Z,1440
2017-06-22T03:20:43.883Z,1500
2017-06-22T03:21:43.881Z,1548
2017-06-22T03:22:43.877Z,1596
2017-06-22T03:23:43.867Z,1644
2017-06-22T03:24:43.868Z,1696
2017-06-22T03:25:43.859Z,1764
2017-06-22T03:26:43.551Z,1884
2017-06-22T03:27:43.852Z,2012
2017-06-22T03:28:43.542Z,2140
2017-06-22T03:29:43.538Z,2272
2017-06-22T03:30:43.537Z,2464
2017-06-22T03:31:43.832Z,2548
2017-06-22T03:32:43.523Z,2668
2017-06-22T03:33:43.522Z,2880
2017-06-22T03:34:43.818Z,3152
2017-06-22T03:35:43.515Z,3400
2017-06-22T03:36:43.810Z,3412
2017-06-22T03:37:43.804Z,3428
2017-06-22T03:38:43.502Z,3580
2017-06-22T03:39:43.801Z,4260
2017-06-22T03:40:43.490Z,4684
2017-06-22T03:41:43.789Z,4592
2017-06-22T03:42:43.483Z,4752
2017-06-22T03:43:43.778Z,5208
2017-06-22T03:44:43.176Z,5976
2017-06-22T03:45:43.774Z,6500
2017-06-22T03:46:43.791Z,6664
2017-06-22T03:47:43.461Z,6812
2017-06-22T03:48:43.760Z,6804
2017-06-22T03:49:43.759Z,7088
2017-06-22T03:50:43.753Z,7460
2017-06-22T03:51:43.751Z,8056
2017-06-22T03:52:43.755Z,8140
2017-06-22T03:53:43.747Z,8900
2017-06-22T03:54:43.747Z,9220
2017-06-22T03:55:43.744Z,9424
2017-06-22T03:56:43.738Z,9488
2017-06-22T03:57:43.736Z,9720
2017-06-22T03:58:43.733Z,10072
2017-06-22T03:59:43.433Z,9740
2017-06-22T04:00:43.733Z,8596
2017-06-22T04:01:43.731Z,9168
2017-06-22T04:02:43.728Z,10272
2017-06-22T04:03:43.736Z,10676
2017-06-22T04:04:43.728Z,10576
2017-06-22T04:05:43.729Z,11116
2017-06-22T04:06:43.728Z,11204
2017-06-22T04:07:43.728Z,11788
2017-06-22T04:08:43.729Z,12424
2017-06-22T04:09:43.730Z,12456
2017-06-22T04:10:43.731Z,13172
2017-06-22T04:11:43.429Z,12828
2017-06-22T04:12:43.732Z,12492
2017-06-22T04:13:43.734Z,12800
2017-06-22T04:14:43.740Z,12968
2017-06-22T04:15:43.741Z,13344
2017-06-22T04:16:43.745Z,13952
2017-06-22T04:17:43.444Z,14336
2017-06-22T04:18:43.756Z,14976
2017-06-22T04:19:43.454Z,15072
2017-06-22T04:20:43.458Z,14592
2017-06-22T04:21:43.767Z,14976
2017-06-22T04:22:43.768Z,15328
2017-06-22T04:23:43.470Z,13248
2017-06-22T04:24:43.780Z,13824
2017-06-22T04:25:43.783Z,15136
2017-06-22T04:26:44.136Z,15040
2017-06-22T04:27:43.797Z,14752
2017-06-22T04:28:43.193Z,14816
2017-06-22T04:29:43.207Z,15552
2017-06-22T04:30:43.514Z,16096
2017-06-22T04:31:43.215Z,14784
2017-06-22T04:32:43.824Z,15680
2017-06-22T04:33:43.528Z,17248
2017-06-22T04:34:43.535Z,16544
2017-06-22T04:35:43.543Z,16864
2017-06-22T04:36:43.254Z,17376
2017-06-22T04:37:43.255Z,17024
2017-06-22T04:38:43.262Z,18464
2017-06-22T04:39:43.271Z,18688
2017-06-22T04:40:43.580Z,18720
2017-06-22T04:41:43.893Z,20480
2017-06-22T04:42:43.901Z,21056
2017-06-22T04:43:43.910Z,21568
2017-06-22T04:44:43.613Z,22336
2017-06-22T04:45:43.928Z,21792
2017-06-22T04:46:43.935Z,22624
2017-06-22T04:47:43.942Z,24512
2017-06-22T04:48:43.652Z,24672
2017-06-22T04:49:43.663Z,23008
2017-06-22T04:50:43.971Z,23008
2017-06-22T04:51:44.005Z,25504
2017-06-22T04:52:43.989Z,26688
2017-06-22T04:53:43.997Z,25920
2017-06-22T04:54:44.009Z,25504
2017-06-22T04:55:44.018Z,25792
2017-06-22T04:56:43.723Z,25248
2017-06-22T04:57:44.039Z,25088
2017-06-22T04:58:44.050Z,25600
2017-06-22T04:59:44.058Z,25408
2017-06-22T05:00:44.069Z,24672
2017-06-22T05:01:44.079Z,26496
2017-06-22T05:02:43.791Z,28128
2017-06-22T05:03:44.101Z,26400
2017-06-22T05:04:43.811Z,26112
2017-06-22T05:05:44.124Z,27552
2017-06-22T05:06:44.134Z,29600
2017-06-22T05:07:43.841Z,29728
2017-06-22T05:08:44.155Z,29344
2017-06-22T05:09:44.169Z,28416
2017-06-22T05:10:43.874Z,27840
2017-06-22T05:11:43.884Z,29568
2017-06-22T05:12:44.220Z,31328
2017-06-22T05:13:44.212Z,30496
2017-06-22T05:14:43.917Z,29600
2017-06-22T05:15:43.929Z,31328
2017-06-22T05:16:44.247Z,33248
2017-06-22T05:17:44.258Z,33632
2017-06-22T05:18:44.267Z,35136
2017-06-22T05:19:43.981Z,35744
2017-06-22T05:20:44.294Z,34816
2017-06-22T05:21:44.307Z,33536
2017-06-22T05:22:44.317Z,33472
2017-06-22T05:23:44.334Z,34240
2017-06-22T05:24:44.037Z,33216
2017-06-22T05:25:44.047Z,35520
2017-06-22T05:26:44.365Z,36896
2017-06-22T05:27:44.071Z,34528
2017-06-22T05:28:48.813Z,32960
2017-06-22T05:29:44.099Z,34976
2017-06-22T05:30:44.114Z,37248
2017-06-22T05:31:44.125Z,35552
2017-06-22T05:32:44.437Z,32896
2017-06-22T05:33:44.151Z,33120
2017-06-22T05:34:44.159Z,34752
2017-06-22T05:35:44.175Z,36000
2017-06-22T05:36:44.493Z,36160
2017-06-22T05:37:44.508Z,35968
2017-06-22T05:38:44.211Z,34912
2017-06-22T05:39:44.529Z,35008
2017-06-22T05:40:43.937Z,35328
2017-06-22T05:41:44.252Z,35040
2017-06-22T05:42:43.962Z,35200
2017-06-22T05:43:43.973Z,36064
2017-06-22T05:44:44.600Z,37376
2017-06-22T05:45:44.000Z,37472
2017-06-22T05:46:44.322Z,37248
2017-06-22T05:47:44.333Z,37216
2017-06-22T05:48:44.344Z,38176
2017-06-22T05:49:44.666Z,38432
2017-06-22T05:50:44.377Z,37984
2017-06-22T05:51:44.385Z,38496
2017-06-22T05:52:44.401Z,39872
2017-06-22T05:53:44.720Z,45024
2017-06-22T05:54:44.124Z,42336
2017-06-22T05:55:44.442Z,38336
2017-06-22T05:56:44.759Z,38336
2017-06-22T05:57:44.474Z,41504
2017-06-22T05:58:44.489Z,44384
2017-06-22T05:59:44.198Z,44256
2017-06-22T06:00:44.818Z,43232
2017-06-22T06:01:44.831Z,41856
2017-06-22T06:02:44.846Z,41088
2017-06-22T06:03:44.251Z,41120
2017-06-22T06:04:44.269Z,42560
2017-06-22T06:05:44.280Z,45824
2017-06-22T06:06:44.300Z,47264
2017-06-22T06:07:44.612Z,45120
2017-06-22T06:08:44.933Z,41824
2017-06-22T06:09:44.948Z,42432
2017-06-22T06:10:44.356Z,46176
2017-06-22T06:11:44.980Z,48928
2017-06-22T06:12:44.697Z,48288
2017-06-22T06:13:45.005Z,43936
2017-06-22T06:14:45.023Z,41344
2017-06-22T06:15:45.040Z,42144
2017-06-22T06:16:44.744Z,42304
2017-06-22T06:17:45.063Z,39872
2017-06-22T06:18:45.080Z,37536
2017-06-22T06:19:45.096Z,36928
2017-06-22T06:20:44.806Z,38528
2017-06-22T06:21:45.129Z,38560
2017-06-22T06:22:45.143Z,41024
2017-06-22T06:23:45.159Z,40384
2017-06-22T06:24:45.171Z,36576
2017-06-22T06:25:45.197Z,35456
2017-06-22T06:26:45.203Z,30944
2017-06-22T06:27:45.217Z,31200
2017-06-22T06:28:45.237Z,29184
2017-06-22T06:29:45.252Z,25440
2017-06-22T06:30:45.267Z,28800
2017-06-22T06:31:45.286Z,28640
2017-06-22T06:32:45.325Z,28416
2017-06-22T06:33:45.314Z,28608
2017-06-22T06:34:45.356Z,27456
2017-06-22T06:35:45.349Z,25184
2017-06-22T06:36:45.363Z,21024
2017-06-22T06:37:45.676Z,21344
2017-06-22T06:38:45.092Z,25824
2017-06-22T06:39:45.108Z,28704
2017-06-22T06:40:45.426Z,41376
2017-06-22T06:41:45.443Z,35776
2017-06-22T06:42:45.458Z,53472
2017-06-22T06:43:45.475Z,53984
2017-06-22T06:44:45.493Z,54496
2017-06-22T06:45:45.508Z,52704
2017-06-22T06:46:45.522Z,48800
2017-06-22T06:47:45.537Z,45152
2017-06-22T06:48:45.256Z,44768
2017-06-22T06:49:45.571Z,46272
2017-06-22T06:50:45.286Z,48352
2017-06-22T06:51:44.999Z,53568
2017-06-22T06:52:45.621Z,60352
2017-06-22T06:53:45.636Z,65888
2017-06-22T06:54:45.658Z,72608
2017-06-22T06:55:45.368Z,73888
2017-06-22T06:56:45.386Z,84192
2017-06-22T06:57:45.706Z,89120
2017-06-22T06:58:45.419Z,91904
2017-06-22T06:59:45.444Z,91520
2017-06-22T07:00:45.149Z,88992
2017-06-22T07:01:45.170Z,83840
2017-06-22T07:02:45.795Z,63488
2017-06-22T07:03:45.806Z,45920
2017-06-22T07:04:45.822Z,61376
2017-06-22T07:05:45.538Z,55008
2017-06-22T07:06:45.857Z,45856
2017-06-22T07:07:45.266Z,35168
2017-06-22T07:08:45.891Z,30272
2017-06-22T07:09:45.906Z,28192
2017-06-22T07:10:45.619Z,26912
2017-06-22T07:11:45.943Z,26208
2017-06-22T07:12:45.957Z,26240
2017-06-22T07:13:45.970Z,36736
2017-06-22T07:14:45.988Z,65568
2017-06-22T07:15:46.004Z,92128
2017-06-22T07:16:46.019Z,101184
2017-06-22T07:17:46.030Z,80192
2017-06-22T07:18:46.049Z,78304
2017-06-22T07:19:45.760Z,77504
2017-06-22T07:20:45.774Z,71808
2017-06-22T07:21:45.796Z,54976
2017-06-22T07:22:46.106Z,56640
2017-06-22T07:23:45.517Z,48864
2017-06-22T07:24:45.837Z,35264
2017-06-22T07:25:45.852Z,40896
2017-06-22T07:26:45.863Z,36704
2017-06-22T07:27:45.879Z,59232
2017-06-22T07:28:45.907Z,46944
2017-06-22T07:29:46.211Z,60128
2017-06-22T07:30:46.227Z,43424
2017-06-22T07:31:46.239Z,47104
2017-06-22T07:32:46.255Z,35168
2017-06-22T07:33:45.962Z,31040
2017-06-22T07:34:46.286Z,29408
2017-06-22T07:35:45.991Z,32608
2017-06-22T07:36:46.312Z,27104
2017-06-22T07:37:46.325Z,28320
2017-06-22T07:38:45.735Z,36736
2017-06-22T07:39:46.046Z,33408
2017-06-22T07:40:46.362Z,43200
2017-06-22T07:41:46.377Z,45504
2017-06-22T07:42:46.085Z,49120
2017-06-22T07:43:46.406Z,58688
2017-06-22T07:44:46.422Z,63840
2017-06-22T07:45:46.431Z,52832
2017-06-22T07:46:46.443Z,28384
2017-06-22T07:47:46.461Z,38624
2017-06-22T07:48:46.470Z,33280
2017-06-22T07:49:46.481Z,35072
2017-06-22T07:50:46.495Z,33600
2017-06-22T07:51:46.512Z,32320
2017-06-22T07:52:46.523Z,29408
2017-06-22T07:53:46.236Z,28224
2017-06-22T07:54:46.553Z,30848
2017-06-22T07:55:46.257Z,29568
2017-06-22T07:56:46.575Z,28128
2017-06-22T07:57:46.597Z,25568
2017-06-22T07:58:46.297Z,23744
2017-06-22T07:59:46.311Z,24928
2017-06-22T08:00:46.626Z,33120
2017-06-22T08:01:46.640Z,32256
2017-06-22T08:02:46.346Z,30368
2017-06-22T08:03:46.664Z,30528
2017-06-22T08:04:46.676Z,31584
2017-06-22T08:05:46.699Z,38752
2017-06-22T08:06:46.705Z,43072
2017-06-22T08:07:46.717Z,52576
2017-06-22T08:08:46.729Z,34240
2017-06-22T08:09:46.435Z,33088
2017-06-22T08:10:46.449Z,27936
2017-06-22T08:11:46.162Z,27616
2017-06-22T08:12:46.480Z,28192
2017-06-22T08:13:46.786Z,25440
2017-06-22T08:14:46.803Z,21696
2017-06-22T08:15:46.824Z,19808
2017-06-22T08:16:46.522Z,19040
2017-06-22T08:17:46.845Z,18880
2017-06-22T08:18:46.849Z,18848
2017-06-22T08:19:46.863Z,18688
2017-06-22T08:20:46.873Z,18400
2017-06-22T08:21:46.585Z,18112
2017-06-22T08:22:46.903Z,18368
2017-06-22T08:23:47.109Z,19264
2017-06-22T08:24:46.624Z,20672
2017-06-22T08:25:46.928Z,24320
2017-06-22T08:26:46.641Z,21344
2017-06-22T08:27:46.953Z,21152
2017-06-22T08:28:46.975Z,20032
2017-06-22T08:29:46.975Z,20096
2017-06-22T08:30:46.981Z,20032
2017-06-22T08:31:46.689Z,19584
2017-06-22T08:32:47.048Z,18400
2017-06-22T08:33:47.016Z,17120
2017-06-22T08:34:47.026Z,16544
2017-06-22T08:35:47.033Z,32896
2017-06-22T08:36:47.043Z,70944
2017-06-22T08:37:47.053Z,67328
2017-06-22T08:38:46.767Z,65440
2017-06-22T08:39:47.068Z,49120
2017-06-22T08:40:47.082Z,69600
2017-06-22T08:41:47.092Z,69760
2017-06-22T08:42:46.494Z,68640
2017-06-22T08:43:46.810Z,63296
2017-06-22T08:44:47.120Z,61280
2017-06-22T08:47:46.858Z,62816
2017-06-22T08:48:49.692Z,69536
2017-06-22T08:49:50.716Z,77472
2017-06-22T08:50:47.185Z,81728
2017-06-22T08:51:46.894Z,70464
2017-06-22T08:53:47.216Z,71264
2017-06-22T08:54:46.933Z,68992
2017-06-22T08:55:47.243Z,64992
2017-06-22T08:56:47.253Z,61792
2017-06-22T08:57:47.260Z,49248
2017-06-22T08:58:47.281Z,48896
2017-06-22T08:59:47.290Z,42496
2017-06-22T09:00:47.301Z,33536
2017-06-22T09:01:47.315Z,20672
2017-06-22T09:02:47.327Z,15804
2017-06-22T09:03:47.338Z,14616
2017-06-22T09:04:47.349Z,13748
2017-06-22T09:05:47.359Z,13144
2017-06-22T09:06:47.373Z,12840
2017-06-22T09:07:47.381Z,12720
2017-06-22T09:08:47.101Z,12592
2017-06-22T09:09:47.101Z,12420
2017-06-22T09:10:47.115Z,12244
2017-06-22T09:11:47.123Z,12044
2017-06-22T09:13:47.443Z,11620
2017-06-22T09:14:47.156Z,11540
2017-06-22T09:15:47.462Z,11500
2017-06-22T09:16:47.474Z,11472
2017-06-22T09:17:47.181Z,11504
2017-06-22T09:18:47.493Z,11660
2017-06-22T09:19:47.197Z,11816
2017-06-22T09:20:47.209Z,11788
2017-06-22T09:21:47.519Z,11888
2017-06-22T09:22:47.535Z,12004
2017-06-22T09:23:47.537Z,12348
2017-06-22T09:24:47.546Z,12908
2017-06-22T09:25:47.551Z,13360
2017-06-22T09:26:47.561Z,13644
2017-06-22T09:27:47.570Z,13608
2017-06-22T09:28:47.576Z,13332
2017-06-22T09:29:47.588Z,13696
2017-06-22T09:30:47.594Z,14036
2017-06-22T09:31:47.669Z,14352
2017-06-22T09:32:47.308Z,14640
2017-06-22T09:33:47.622Z,14860
2017-06-22T09:34:47.627Z,14972
2017-06-22T09:35:47.638Z,14932
2017-06-22T09:36:47.639Z,14868
2017-06-22T09:37:47.647Z,14912
2017-06-22T09:38:47.353Z,14940
2017-06-22T09:39:47.665Z,14808
2017-06-22T09:40:47.671Z,14828
2017-06-22T09:41:47.679Z,14984
2017-06-22T09:42:46.774Z,15116
2017-06-22T09:43:47.692Z,15072
2017-06-22T09:44:47.708Z,15068
2017-06-22T09:45:47.713Z,15104
2017-06-22T09:46:47.714Z,15060
2017-06-22T09:47:47.727Z,14784
2017-06-22T09:48:47.733Z,14556
2017-06-22T09:49:47.434Z,14528
2017-06-22T09:50:47.745Z,14256
2017-06-22T09:51:47.754Z,13984
2017-06-22T09:52:47.760Z,13760
2017-06-22T09:53:47.774Z,13416
2017-06-22T09:54:47.778Z,13036
2017-06-22T09:55:47.480Z,12892
2017-06-22T09:56:47.793Z,12728
2017-06-22T09:57:47.799Z,12620
2017-06-22T09:58:47.508Z,12476
2017-06-22T09:59:47.817Z,12132
2017-06-22T10:00:47.524Z,11864
2017-06-22T10:01:47.833Z,11516
2017-06-22T10:02:47.837Z,11092
2017-06-22T10:03:47.842Z,11084
2017-06-22T10:04:47.852Z,10924
2017-06-22T10:05:47.860Z,10868
2017-06-22T10:06:47.869Z,10984
2017-06-22T10:07:47.873Z,10996
2017-06-22T10:08:47.881Z,10960
2017-06-22T10:09:47.893Z,10916
2017-06-22T10:10:47.898Z,10792
2017-06-22T10:11:47.909Z,10756
2017-06-22T10:12:47.612Z,10684
2017-06-22T10:13:47.921Z,10652
2017-06-22T10:14:47.933Z,10700
2017-06-22T10:15:47.936Z,10784
2017-06-22T10:16:47.941Z,10700
2017-06-22T10:17:47.947Z,10784
2017-06-22T10:18:47.960Z,10880
2017-06-22T10:19:47.964Z,10924
2017-06-22T10:20:47.975Z,10928
2017-06-22T10:21:47.983Z,11188
2017-06-22T10:22:47.990Z,11216
2017-06-22T10:23:47.993Z,10988
2017-06-22T10:24:48.006Z,10808
2017-06-22T10:25:47.706Z,10772
2017-06-22T10:26:48.016Z,10656
2017-06-22T10:27:47.723Z,10424
2017-06-22T10:28:48.030Z,10360
2017-06-22T10:29:48.037Z,10272
2017-06-22T10:30:48.045Z,10272
2017-06-22T10:31:47.756Z,10296
2017-06-22T10:32:48.060Z,10436
2017-06-22T10:33:48.065Z,10632
2017-06-22T10:34:48.075Z,10888
2017-06-22T10:35:47.779Z,11140
2017-06-22T10:36:48.091Z,11452
2017-06-22T10:37:48.096Z,11668
2017-06-22T10:38:48.208Z,12012
2017-06-22T10:39:47.200Z,12416
2017-06-22T10:40:47.817Z,12784
2017-06-22T10:41:48.125Z,13184
2017-06-22T10:42:47.839Z,13620
2017-06-22T10:43:48.139Z,14072
2017-06-22T10:44:48.150Z,14560
2017-06-22T10:45:48.155Z,15056
2017-06-22T10:46:48.169Z,15564
2017-06-22T10:47:47.867Z,16088
2017-06-22T10:48:48.175Z,16672
2017-06-22T10:49:47.881Z,17152
2017-06-22T10:50:47.887Z,17536
2017-06-22T10:51:47.596Z,17984
2017-06-22T10:52:47.905Z,18400
2017-06-22T10:53:48.217Z,18784
2017-06-22T10:54:48.222Z,19136
2017-06-22T10:55:48.231Z,19488
2017-06-22T10:56:48.237Z,19872
2017-06-22T10:57:47.946Z,20256
2017-06-22T10:58:47.949Z,20576
2017-06-22T10:59:47.965Z,20992
2017-06-22T11:00:47.967Z,21248
2017-06-22T11:01:47.975Z,21504
2017-06-22T11:02:47.982Z,21760
2017-06-22T11:03:47.690Z,22080
2017-06-22T11:04:48.306Z,22368
2017-06-22T11:05:47.704Z,22656
2017-06-22T11:06:48.322Z,22944
2017-06-22T11:07:48.331Z,23136
2017-06-22T11:08:48.034Z,22752
2017-06-22T11:09:48.042Z,22816
2017-06-22T11:10:48.354Z,22880
2017-06-22T11:11:48.365Z,22880
2017-06-22T11:12:48.375Z,22848
2017-06-22T11:13:48.076Z,22688
2017-06-22T11:14:47.781Z,22496
2017-06-22T11:15:48.097Z,22208
2017-06-22T11:16:48.407Z,21856
2017-06-22T11:17:48.417Z,21536
2017-06-22T11:18:48.429Z,21120
2017-06-22T11:19:48.442Z,20704
2017-06-22T11:20:48.144Z,20288
2017-06-22T11:21:47.854Z,19872
2017-06-22T11:22:47.865Z,19520
2017-06-22T11:23:49.327Z,19136
2017-06-22T11:24:48.484Z,18816
2017-06-22T11:25:48.197Z,18528
2017-06-22T11:26:48.203Z,18208
2017-06-22T11:27:48.205Z,17888
2017-06-22T11:28:48.216Z,17440
2017-06-22T11:29:48.225Z,16960
2017-06-22T11:30:48.240Z,16384
2017-06-22T11:31:48.248Z,15904
2017-06-22T11:32:48.562Z,15264
2017-06-22T11:33:48.566Z,14736
2017-06-22T11:34:48.273Z,14200
2017-06-22T11:35:48.282Z,13648
2017-06-22T11:36:47.991Z,13096
2017-06-22T11:37:48.612Z,12572
2017-06-22T11:38:48.310Z,12092
2017-06-22T11:39:48.623Z,11632
2017-06-22T11:40:48.331Z,11188
2017-06-22T11:41:48.645Z,10760
2017-06-22T11:42:48.652Z,10348
2017-06-22T11:43:48.358Z,9988
2017-06-22T11:44:48.674Z,9692
2017-06-22T11:45:48.380Z,9484
2017-06-22T11:46:48.387Z,9344
2017-06-22T11:47:48.394Z,9220
2017-06-22T11:48:48.706Z,9108
2017-06-22T11:49:48.412Z,8928
2017-06-22T11:50:48.724Z,8692
2017-06-22T11:51:48.437Z,8520
2017-06-22T11:52:48.137Z,8308
2017-06-22T11:53:48.142Z,7968
2017-06-22T11:54:48.758Z,7600
2017-06-22T11:55:48.766Z,7192
2017-06-22T11:56:48.471Z,6868
2017-06-22T11:57:48.784Z,6608
2017-06-22T11:58:49.143Z,6424
2017-06-22T11:59:48.799Z,6220
2017-06-22T12:00:48.807Z,5928
2017-06-22T12:01:48.815Z,5772
2017-06-22T12:02:48.550Z,5808
2017-06-22T12:03:48.832Z,5808
2017-06-22T12:04:48.262Z,5728
2017-06-22T12:05:48.850Z,5612
2017-06-22T12:06:48.251Z,5456
2017-06-22T12:07:48.860Z,5404
2017-06-22T12:08:48.568Z,5448
2017-06-22T12:09:48.573Z,5588
2017-06-22T12:10:48.281Z,5672
2017-06-22T12:11:48.891Z,5684
2017-06-22T12:12:48.600Z,5536
2017-06-22T12:13:48.904Z,5428
2017-06-22T12:14:48.910Z,5308
2017-06-22T12:15:48.920Z,5100
2017-06-22T12:16:48.926Z,4888
2017-06-22T12:17:48.630Z,4664
2017-06-22T12:18:48.941Z,4512
2017-06-22T12:19:48.950Z,4408
2017-06-22T12:20:48.953Z,4268
2017-06-22T12:21:48.964Z,4112
2017-06-22T12:22:48.967Z,3908
2017-06-22T12:23:48.975Z,3676
2017-06-22T12:24:48.979Z,3468
2017-06-22T12:25:48.995Z,3312
2017-06-22T12:26:48.997Z,3232
2017-06-22T12:27:48.705Z,3220
2017-06-22T12:28:49.004Z,3172
2017-06-22T12:29:48.712Z,3020
2017-06-22T12:30:49.015Z,2816
2017-06-22T12:31:49.027Z,2624
2017-06-22T12:32:49.034Z,3088
2017-06-22T12:33:48.732Z,2984
2017-06-22T12:34:49.041Z,2900
2017-06-22T12:35:48.744Z,2796
2017-06-22T12:36:49.055Z,2732
2017-06-22T12:37:48.452Z,2752
2017-06-22T12:38:49.063Z,2864
2017-06-22T12:39:48.768Z,2976
2017-06-22T12:40:49.072Z,2992
2017-06-22T12:41:48.775Z,2928
2017-06-22T12:42:48.782Z,2824
2017-06-22T12:43:48.785Z,2716
2017-06-22T12:44:48.796Z,2524
2017-06-22T12:45:48.793Z,2376
2017-06-22T12:46:49.105Z,2220
2017-06-22T12:47:48.826Z,2080
2017-06-22T12:48:48.504Z,1924
2017-06-22T12:49:49.118Z,1852
2017-06-22T12:50:48.819Z,1768
2017-06-22T12:51:48.819Z,1716
2017-06-22T12:52:48.823Z,1604
2017-06-22T12:53:49.133Z,1376
2017-06-22T12:54:49.137Z,1096
2017-06-22T12:55:49.138Z,884
2017-06-22T12:56:49.149Z,816
2017-06-22T12:57:49.143Z,876
2017-06-22T12:58:49.146Z,1060
2017-06-22T12:59:48.849Z,1368
2017-06-22T13:00:49.151Z,1656
2017-06-22T13:01:49.158Z,1516
2017-06-22T13:02:48.551Z,1016
2017-06-22T13:03:49.162Z,780
2017-06-22T13:04:49.160Z,788
2017-06-22T13:05:49.160Z,892
2017-06-22T13:06:49.166Z,996
2017-06-22T13:07:48.863Z,1008
2017-06-22T13:08:49.173Z,976
2017-06-22T13:09:49.168Z,980
2017-06-22T13:10:49.169Z,1016
2017-06-22T13:11:49.167Z,1048
2017-06-22T13:12:49.170Z,1076
2017-06-22T13:13:49.516Z,1040
2017-06-22T13:14:49.172Z,996
2017-06-22T13:15:49.166Z,920
2017-06-22T13:16:49.167Z,844
2017-06-22T13:17:49.169Z,792
2017-06-22T13:18:48.860Z,756
2017-06-22T13:19:49.163Z,732
2017-06-22T13:20:48.858Z,724
2017-06-22T13:21:49.167Z,744
2017-06-22T13:22:49.159Z,740
2017-06-22T13:23:49.158Z,768